sensor_id;sensor_type;location;lat;lon;timestamp;P1;durP1;ratioP1;P2;durP2;ratioP2
72437;SDS011;60444;43.534;-5.674;2022-11-20T00:01:47;3.47;;;1.13;;
72437;SDS011;60444;43.534;-5.674;2022-11-20T00:04:12;4.07;;;1.20;;
72437;SDS011;60444;43.534;-5.674;2022-11-20T00:06:38;3.58;;;1.05;;
72437;SDS011;60444;43.534;-5.674;2022-11-20T00:09:03;3.33;;;0.80;;
72437;SDS011;60444;43.534;-5.674;2022-11-20T00:11:30;4.15;;;1.08;;
72437;SDS011;60444;43.534;-5.674;2022-11-20T00:13:58;4.00;;;0.95;;
72437;SDS011;60444;43.534;-5.674;2022-11-20T00:16:26;3.53;;;0.80;;
72437;SDS011;60444;43.534;-5.674;2022-11-20T00:18:55;3.35;;;0.77;;
72437;SDS011;60444;43.534;-5.674;2022-11-20T00:21:24;3.20;;;0.87;;
72437;SDS011;60444;43.534;-5.674;2022-11-20T00:23:52;4.03;;;0.90;;
72437;SDS011;60444;43.534;-5.674;2022-11-20T00:26:19;2.75;;;0.50;;
72437;SDS011;60444;43.534;-5.674;2022-11-20T00:28:53;3.72;;;1.08;;
72437;SDS011;60444;43.534;-5.674;2022-11-20T00:31:20;2.35;;;0.68;;
72437;SDS011;60444;43.534;-5.674;2022-11-20T00:33:46;2.20;;;0.63;;
72437;SDS011;60444;43.534;-5.674;2022-11-20T00:36:13;2.83;;;0.80;;
72437;SDS011;60444;43.534;-5.674;2022-11-20T00:38:44;2.78;;;0.80;;
72437;SDS011;60444;43.534;-5.674;2022-11-20T00:41:11;5.70;;;0.70;;
72437;SDS011;60444;43.534;-5.674;2022-11-20T00:43:38;3.45;;;1.15;;
72437;SDS011;60444;43.534;-5.674;2022-11-20T00:46:05;2.80;;;0.70;;
72437;SDS011;60444;43.534;-5.674;2022-11-20T00:48:33;3.50;;;0.65;;
72437;SDS011;60444;43.534;-5.674;2022-11-20T00:50:59;2.37;;;0.60;;
72437;SDS011;60444;43.534;-5.674;2022-11-20T00:53:24;3.25;;;0.70;;
72437;SDS011;60444;43.534;-5.674;2022-11-20T00:55:57;2.90;;;0.50;;
72437;SDS011;60444;43.534;-5.674;2022-11-20T00:58:28;3.73;;;1.00;;
72437;SDS011;60444;43.534;-5.674;2022-11-20T01:03:27;2.63;;;0.88;;
72437;SDS011;60444;43.534;-5.674;2022-11-20T01:05:59;3.20;;;1.05;;
72437;SDS011;60444;43.534;-5.674;2022-11-20T01:08:31;3.03;;;1.30;;
72437;SDS011;60444;43.534;-5.674;2022-11-20T01:10:59;3.23;;;0.80;;
72437;SDS011;60444;43.534;-5.674;2022-11-20T01:13:26;2.50;;;0.68;;
72437;SDS011;60444;43.534;-5.674;2022-11-20T01:16:07;2.38;;;0.60;;
72437;SDS011;60444;43.534;-5.674;2022-11-20T01:18:43;2.05;;;0.50;;
72437;SDS011;60444;43.534;-5.674;2022-11-20T01:21:11;4.05;;;0.70;;
72437;SDS011;60444;43.534;-5.674;2022-11-20T01:23:39;3.47;;;0.50;;
72437;SDS011;60444;43.534;-5.674;2022-11-20T01:26:07;2.30;;;0.60;;
72437;SDS011;60444;43.534;-5.674;2022-11-20T01:28:34;2.50;;;0.50;;
72437;SDS011;60444;43.534;-5.674;2022-11-20T01:31:00;3.15;;;0.65;;
72437;SDS011;60444;43.534;-5.674;2022-11-20T01:33:26;1.97;;;0.50;;
72437;SDS011;60444;43.534;-5.674;2022-11-20T01:35:52;1.95;;;0.68;;
72437;SDS011;60444;43.534;-5.674;2022-11-20T01:38:18;2.35;;;0.60;;
72437;SDS011;60444;43.534;-5.674;2022-11-20T01:40:45;2.72;;;0.75;;
72437;SDS011;60444;43.534;-5.674;2022-11-20T01:43:19;2.75;;;0.90;;
72437;SDS011;60444;43.534;-5.674;2022-11-20T01:54:04;2.45;;;0.70;;
72437;SDS011;60444;43.534;-5.674;2022-11-20T01:56:33;2.97;;;0.40;;
72437;SDS011;60444;43.534;-5.674;2022-11-20T01:59:03;1.23;;;0.43;;
72437;SDS011;60444;43.534;-5.674;2022-11-20T02:01:32;2.17;;;0.60;;
72437;SDS011;60444;43.534;-5.674;2022-11-20T02:03:58;3.08;;;0.60;;
72437;SDS011;60444;43.534;-5.674;2022-11-20T02:07:07;1.95;;;0.50;;
72437;SDS011;60444;43.534;-5.674;2022-11-20T02:09:25;2.95;;;0.73;;
72437;SDS011;60444;43.534;-5.674;2022-11-20T02:11:51;2.30;;;0.70;;
72437;SDS011;60444;43.534;-5.674;2022-11-20T02:14:17;2.92;;;0.77;;
72437;SDS011;60444;43.534;-5.674;2022-11-20T02:16:45;2.38;;;0.70;;
72437;SDS011;60444;43.534;-5.674;2022-11-20T02:19:24;2.38;;;0.55;;
72437;SDS011;60444;43.534;-5.674;2022-11-20T02:22:00;2.60;;;0.85;;
72437;SDS011;60444;43.534;-5.674;2022-11-20T02:24:30;1.77;;;0.50;;
72437;SDS011;60444;43.534;-5.674;2022-11-20T02:27:03;3.03;;;0.77;;
72437;SDS011;60444;43.534;-5.674;2022-11-20T02:29:34;1.80;;;0.70;;
72437;SDS011;60444;43.534;-5.674;2022-11-20T02:32:04;1.52;;;0.50;;
72437;SDS011;60444;43.534;-5.674;2022-11-20T02:34:30;2.33;;;0.50;;
72437;SDS011;60444;43.534;-5.674;2022-11-20T02:36:56;1.70;;;0.50;;
72437;SDS011;60444;43.534;-5.674;2022-11-20T02:39:24;2.28;;;0.80;;
72437;SDS011;60444;43.534;-5.674;2022-11-20T02:41:52;2.87;;;0.70;;
72437;SDS011;60444;43.534;-5.674;2022-11-20T02:44:19;2.47;;;0.32;;
72437;SDS011;60444;43.534;-5.674;2022-11-20T02:46:45;2.22;;;0.80;;
72437;SDS011;60444;43.534;-5.674;2022-11-20T02:49:10;2.03;;;0.50;;
72437;SDS011;60444;43.534;-5.674;2022-11-20T02:51:36;1.70;;;0.60;;
72437;SDS011;60444;43.534;-5.674;2022-11-20T02:54:01;2.03;;;0.63;;
72437;SDS011;60444;43.534;-5.674;2022-11-20T02:56:27;2.40;;;0.50;;
72437;SDS011;60444;43.534;-5.674;2022-11-20T02:58:52;2.35;;;0.50;;
72437;SDS011;60444;43.534;-5.674;2022-11-20T03:01:18;2.13;;;0.70;;
72437;SDS011;60444;43.534;-5.674;2022-11-20T03:03:43;1.88;;;0.60;;
72437;SDS011;60444;43.534;-5.674;2022-11-20T03:06:09;1.83;;;0.60;;
72437;SDS011;60444;43.534;-5.674;2022-11-20T03:08:35;9.57;;;0.70;;
72437;SDS011;60444;43.534;-5.674;2022-11-20T03:11:05;2.55;;;0.30;;
72437;SDS011;60444;43.534;-5.674;2022-11-20T03:13:31;1.50;;;0.40;;
72437;SDS011;60444;43.534;-5.674;2022-11-20T03:15:57;2.55;;;0.70;;
72437;SDS011;60444;43.534;-5.674;2022-11-20T03:18:23;1.73;;;0.60;;
72437;SDS011;60444;43.534;-5.674;2022-11-20T03:20:48;1.47;;;0.47;;
72437;SDS011;60444;43.534;-5.674;2022-11-20T03:23:14;1.53;;;0.63;;
72437;SDS011;60444;43.534;-5.674;2022-11-20T03:25:39;1.42;;;0.30;;
72437;SDS011;60444;43.534;-5.674;2022-11-20T03:28:05;2.00;;;0.53;;
72437;SDS011;60444;43.534;-5.674;2022-11-20T03:30:30;1.50;;;0.40;;
72437;SDS011;60444;43.534;-5.674;2022-11-20T03:32:56;2.50;;;0.57;;
72437;SDS011;60444;43.534;-5.674;2022-11-20T03:35:21;2.03;;;0.80;;
72437;SDS011;60444;43.534;-5.674;2022-11-20T03:37:47;1.53;;;0.40;;
72437;SDS011;60444;43.534;-5.674;2022-11-20T03:40:13;1.40;;;0.40;;
72437;SDS011;60444;43.534;-5.674;2022-11-20T03:42:38;1.75;;;0.60;;
72437;SDS011;60444;43.534;-5.674;2022-11-20T03:45:10;2.07;;;0.50;;
72437;SDS011;60444;43.534;-5.674;2022-11-20T03:47:36;1.77;;;0.60;;
72437;SDS011;60444;43.534;-5.674;2022-11-20T03:50:02;2.72;;;0.43;;
72437;SDS011;60444;43.534;-5.674;2022-11-20T03:52:28;1.73;;;0.53;;
72437;SDS011;60444;43.534;-5.674;2022-11-20T03:54:53;1.25;;;0.50;;
72437;SDS011;60444;43.534;-5.674;2022-11-20T03:57:19;1.87;;;0.30;;
72437;SDS011;60444;43.534;-5.674;2022-11-20T03:59:44;1.53;;;0.40;;
72437;SDS011;60444;43.534;-5.674;2022-11-20T04:02:10;3.10;;;0.75;;
72437;SDS011;60444;43.534;-5.674;2022-11-20T04:04:35;1.63;;;0.37;;
72437;SDS011;60444;43.534;-5.674;2022-11-20T04:07:01;2.20;;;0.40;;
72437;SDS011;60444;43.534;-5.674;2022-11-20T04:09:27;2.08;;;0.50;;
72437;SDS011;60444;43.534;-5.674;2022-11-20T04:11:53;2.72;;;0.60;;
72437;SDS011;60444;43.534;-5.674;2022-11-20T04:14:18;1.97;;;0.47;;
72437;SDS011;60444;43.534;-5.674;2022-11-20T04:16:44;2.17;;;0.50;;
72437;SDS011;60444;43.534;-5.674;2022-11-20T04:19:10;1.70;;;0.60;;
72437;SDS011;60444;43.534;-5.674;2022-11-20T04:21:37;1.92;;;0.40;;
72437;SDS011;60444;43.534;-5.674;2022-11-20T04:24:02;3.92;;;0.60;;
72437;SDS011;60444;43.534;-5.674;2022-11-20T04:26:28;3.10;;;0.50;;
72437;SDS011;60444;43.534;-5.674;2022-11-20T04:28:57;3.10;;;0.68;;
72437;SDS011;60444;43.534;-5.674;2022-11-20T04:31:29;1.92;;;0.50;;
72437;SDS011;60444;43.534;-5.674;2022-11-20T04:33:58;3.28;;;0.70;;
72437;SDS011;60444;43.534;-5.674;2022-11-20T04:36:26;3.33;;;0.77;;
72437;SDS011;60444;43.534;-5.674;2022-11-20T04:38:53;2.10;;;0.40;;
72437;SDS011;60444;43.534;-5.674;2022-11-20T04:41:30;4.07;;;1.10;;
72437;SDS011;60444;43.534;-5.674;2022-11-20T04:44:01;2.05;;;0.47;;
72437;SDS011;60444;43.534;-5.674;2022-11-20T04:46:29;2.42;;;0.52;;
72437;SDS011;60444;43.534;-5.674;2022-11-20T04:48:56;2.57;;;0.50;;
72437;SDS011;60444;43.534;-5.674;2022-11-20T04:51:22;5.68;;;1.52;;
72437;SDS011;60444;43.534;-5.674;2022-11-20T04:53:48;2.85;;;0.73;;
72437;SDS011;60444;43.534;-5.674;2022-11-20T04:56:17;3.08;;;0.63;;
72437;SDS011;60444;43.534;-5.674;2022-11-20T04:58:42;3.80;;;0.50;;
72437;SDS011;60444;43.534;-5.674;2022-11-20T05:01:12;2.85;;;0.57;;
72437;SDS011;60444;43.534;-5.674;2022-11-20T05:03:42;2.83;;;0.77;;
72437;SDS011;60444;43.534;-5.674;2022-11-20T05:06:10;4.20;;;0.70;;
72437;SDS011;60444;43.534;-5.674;2022-11-20T05:08:38;3.45;;;0.95;;
72437;SDS011;60444;43.534;-5.674;2022-11-20T05:11:04;2.53;;;0.52;;
72437;SDS011;60444;43.534;-5.674;2022-11-20T05:13:38;2.95;;;0.60;;
72437;SDS011;60444;43.534;-5.674;2022-11-20T05:16:08;3.43;;;0.70;;
72437;SDS011;60444;43.534;-5.674;2022-11-20T05:18:35;1.98;;;0.50;;
72437;SDS011;60444;43.534;-5.674;2022-11-20T05:21:02;3.35;;;0.80;;
72437;SDS011;60444;43.534;-5.674;2022-11-20T05:23:29;2.55;;;0.45;;
72437;SDS011;60444;43.534;-5.674;2022-11-20T05:25:55;2.60;;;0.70;;
72437;SDS011;60444;43.534;-5.674;2022-11-20T05:28:22;2.30;;;0.40;;
72437;SDS011;60444;43.534;-5.674;2022-11-20T05:30:48;2.10;;;0.60;;
72437;SDS011;60444;43.534;-5.674;2022-11-20T05:33:14;2.63;;;0.60;;
72437;SDS011;60444;43.534;-5.674;2022-11-20T05:35:40;2.40;;;0.52;;
72437;SDS011;60444;43.534;-5.674;2022-11-20T05:38:05;2.53;;;0.70;;
72437;SDS011;60444;43.534;-5.674;2022-11-20T05:40:31;2.37;;;0.60;;
72437;SDS011;60444;43.534;-5.674;2022-11-20T05:42:56;3.57;;;0.90;;
72437;SDS011;60444;43.534;-5.674;2022-11-20T05:45:22;3.15;;;0.55;;
72437;SDS011;60444;43.534;-5.674;2022-11-20T05:47:47;3.77;;;0.77;;
72437;SDS011;60444;43.534;-5.674;2022-11-20T05:50:13;3.17;;;0.68;;
72437;SDS011;60444;43.534;-5.674;2022-11-20T05:52:39;4.10;;;0.67;;
72437;SDS011;60444;43.534;-5.674;2022-11-20T05:55:05;4.45;;;0.50;;
72437;SDS011;60444;43.534;-5.674;2022-11-20T05:57:31;3.38;;;0.65;;
72437;SDS011;60444;43.534;-5.674;2022-11-20T05:59:56;3.03;;;1.00;;
72437;SDS011;60444;43.534;-5.674;2022-11-20T06:02:22;4.40;;;0.70;;
72437;SDS011;60444;43.534;-5.674;2022-11-20T06:04:47;5.65;;;0.55;;
72437;SDS011;60444;43.534;-5.674;2022-11-20T06:07:13;4.57;;;1.47;;
72437;SDS011;60444;43.534;-5.674;2022-11-20T06:09:39;3.63;;;0.63;;
72437;SDS011;60444;43.534;-5.674;2022-11-20T06:12:04;3.97;;;1.30;;
72437;SDS011;60444;43.534;-5.674;2022-11-20T06:14:30;4.00;;;0.75;;
72437;SDS011;60444;43.534;-5.674;2022-11-20T06:16:56;3.97;;;0.60;;
72437;SDS011;60444;43.534;-5.674;2022-11-20T06:19:21;2.50;;;0.70;;
72437;SDS011;60444;43.534;-5.674;2022-11-20T06:21:48;2.40;;;0.70;;
72437;SDS011;60444;43.534;-5.674;2022-11-20T06:24:14;3.92;;;0.50;;
72437;SDS011;60444;43.534;-5.674;2022-11-20T06:26:41;4.77;;;1.07;;
72437;SDS011;60444;43.534;-5.674;2022-11-20T06:29:06;4.00;;;1.08;;
72437;SDS011;60444;43.534;-5.674;2022-11-20T06:31:32;4.57;;;0.97;;
72437;SDS011;60444;43.534;-5.674;2022-11-20T06:34:00;3.88;;;0.82;;
72437;SDS011;60444;43.534;-5.674;2022-11-20T06:36:26;5.65;;;1.40;;
72437;SDS011;60444;43.534;-5.674;2022-11-20T06:38:51;4.50;;;0.83;;
72437;SDS011;60444;43.534;-5.674;2022-11-20T06:41:18;5.68;;;1.48;;
72437;SDS011;60444;43.534;-5.674;2022-11-20T06:43:45;5.43;;;0.67;;
72437;SDS011;60444;43.534;-5.674;2022-11-20T06:46:12;6.70;;;1.67;;
72437;SDS011;60444;43.534;-5.674;2022-11-20T06:48:39;4.85;;;1.40;;
72437;SDS011;60444;43.534;-5.674;2022-11-20T06:51:06;6.18;;;1.10;;
72437;SDS011;60444;43.534;-5.674;2022-11-20T06:53:32;5.90;;;2.13;;
72437;SDS011;60444;43.534;-5.674;2022-11-20T06:55:59;7.93;;;1.83;;
72437;SDS011;60444;43.534;-5.674;2022-11-20T06:58:28;7.25;;;2.00;;
72437;SDS011;60444;43.534;-5.674;2022-11-20T07:01:08;5.88;;;1.30;;
72437;SDS011;60444;43.534;-5.674;2022-11-20T07:03:36;10.93;;;3.55;;
72437;SDS011;60444;43.534;-5.674;2022-11-20T07:06:01;13.50;;;5.13;;
72437;SDS011;60444;43.534;-5.674;2022-11-20T07:08:28;12.43;;;5.78;;
72437;SDS011;60444;43.534;-5.674;2022-11-20T07:10:56;11.20;;;4.22;;
72437;SDS011;60444;43.534;-5.674;2022-11-20T07:13:23;7.47;;;2.90;;
72437;SDS011;60444;43.534;-5.674;2022-11-20T07:15:49;20.77;;;10.33;;
72437;SDS011;60444;43.534;-5.674;2022-11-20T07:18:14;21.07;;;10.70;;
72437;SDS011;60444;43.534;-5.674;2022-11-20T07:20:40;10.80;;;5.93;;
72437;SDS011;60444;43.534;-5.674;2022-11-20T07:23:05;20.87;;;10.47;;
72437;SDS011;60444;43.534;-5.674;2022-11-20T07:25:31;21.10;;;10.57;;
72437;SDS011;60444;43.534;-5.674;2022-11-20T07:27:59;20.15;;;10.93;;
72437;SDS011;60444;43.534;-5.674;2022-11-20T07:30:29;14.00;;;6.77;;
72437;SDS011;60444;43.534;-5.674;2022-11-20T07:32:55;9.98;;;4.47;;
72437;SDS011;60444;43.534;-5.674;2022-11-20T07:35:22;14.60;;;7.47;;
72437;SDS011;60444;43.534;-5.674;2022-11-20T07:37:48;12.30;;;5.95;;
72437;SDS011;60444;43.534;-5.674;2022-11-20T07:40:14;28.30;;;13.43;;
72437;SDS011;60444;43.534;-5.674;2022-11-20T07:42:49;26.58;;;12.63;;
72437;SDS011;60444;43.534;-5.674;2022-11-20T07:45:17;13.25;;;5.82;;
72437;SDS011;60444;43.534;-5.674;2022-11-20T07:47:43;12.52;;;4.15;;
72437;SDS011;60444;43.534;-5.674;2022-11-20T07:50:09;11.47;;;5.07;;
72437;SDS011;60444;43.534;-5.674;2022-11-20T07:52:38;10.95;;;1.60;;
72437;SDS011;60444;43.534;-5.674;2022-11-20T07:55:04;10.87;;;2.83;;
72437;SDS011;60444;43.534;-5.674;2022-11-20T07:57:30;11.65;;;2.63;;
72437;SDS011;60444;43.534;-5.674;2022-11-20T07:59:56;11.40;;;3.37;;
72437;SDS011;60444;43.534;-5.674;2022-11-20T08:02:21;10.52;;;3.72;;
72437;SDS011;60444;43.534;-5.674;2022-11-20T08:04:47;9.43;;;2.47;;
72437;SDS011;60444;43.534;-5.674;2022-11-20T08:07:13;12.25;;;1.80;;
72437;SDS011;60444;43.534;-5.674;2022-11-20T08:09:38;10.93;;;2.60;;
72437;SDS011;60444;43.534;-5.674;2022-11-20T08:12:04;7.53;;;2.30;;
72437;SDS011;60444;43.534;-5.674;2022-11-20T08:14:48;12.02;;;1.80;;
72437;SDS011;60444;43.534;-5.674;2022-11-20T08:17:14;9.83;;;2.73;;
72437;SDS011;60444;43.534;-5.674;2022-11-20T08:19:39;15.07;;;1.90;;
72437;SDS011;60444;43.534;-5.674;2022-11-20T08:22:05;12.03;;;2.23;;
72437;SDS011;60444;43.534;-5.674;2022-11-20T08:24:30;14.67;;;2.23;;
72437;SDS011;60444;43.534;-5.674;2022-11-20T08:26:59;13.70;;;2.27;;
72437;SDS011;60444;43.534;-5.674;2022-11-20T08:29:28;13.48;;;1.77;;
72437;SDS011;60444;43.534;-5.674;2022-11-20T08:31:53;12.05;;;2.70;;
72437;SDS011;60444;43.534;-5.674;2022-11-20T08:34:19;11.80;;;2.40;;
72437;SDS011;60444;43.534;-5.674;2022-11-20T08:36:44;8.35;;;2.15;;
72437;SDS011;60444;43.534;-5.674;2022-11-20T08:39:13;11.33;;;2.43;;
72437;SDS011;60444;43.534;-5.674;2022-11-20T08:41:39;8.25;;;2.30;;
72437;SDS011;60444;43.534;-5.674;2022-11-20T08:44:05;9.87;;;2.63;;
72437;SDS011;60444;43.534;-5.674;2022-11-20T08:46:33;13.88;;;2.45;;
72437;SDS011;60444;43.534;-5.674;2022-11-20T08:49:06;13.93;;;2.83;;
72437;SDS011;60444;43.534;-5.674;2022-11-20T08:51:34;7.97;;;2.00;;
72437;SDS011;60444;43.534;-5.674;2022-11-20T08:53:59;11.27;;;2.20;;
72437;SDS011;60444;43.534;-5.674;2022-11-20T08:56:28;12.68;;;2.63;;
72437;SDS011;60444;43.534;-5.674;2022-11-20T08:58:53;14.50;;;2.43;;
72437;SDS011;60444;43.534;-5.674;2022-11-20T09:01:19;11.32;;;2.20;;
72437;SDS011;60444;43.534;-5.674;2022-11-20T09:03:46;14.18;;;2.58;;
72437;SDS011;60444;43.534;-5.674;2022-11-20T09:06:12;17.07;;;4.33;;
72437;SDS011;60444;43.534;-5.674;2022-11-20T09:08:38;14.55;;;2.70;;
72437;SDS011;60444;43.534;-5.674;2022-11-20T09:11:04;11.48;;;1.88;;
72437;SDS011;60444;43.534;-5.674;2022-11-20T09:13:31;13.55;;;2.33;;
72437;SDS011;60444;43.534;-5.674;2022-11-20T09:16:04;12.00;;;2.67;;
72437;SDS011;60444;43.534;-5.674;2022-11-20T09:18:32;16.38;;;2.10;;
72437;SDS011;60444;43.534;-5.674;2022-11-20T09:20:59;10.10;;;1.95;;
72437;SDS011;60444;43.534;-5.674;2022-11-20T09:23:26;8.90;;;1.80;;
72437;SDS011;60444;43.534;-5.674;2022-11-20T09:25:55;11.80;;;2.10;;
72437;SDS011;60444;43.534;-5.674;2022-11-20T09:28:24;12.80;;;1.87;;
72437;SDS011;60444;43.534;-5.674;2022-11-20T09:30:50;6.22;;;1.40;;
72437;SDS011;60444;43.534;-5.674;2022-11-20T09:33:16;15.57;;;2.67;;
72437;SDS011;60444;43.534;-5.674;2022-11-20T09:35:42;15.68;;;2.00;;
72437;SDS011;60444;43.534;-5.674;2022-11-20T09:38:08;11.73;;;1.85;;
72437;SDS011;60444;43.534;-5.674;2022-11-20T09:40:37;20.67;;;2.42;;
72437;SDS011;60444;43.534;-5.674;2022-11-20T09:48:51;20.08;;;2.70;;
72437;SDS011;60444;43.534;-5.674;2022-11-20T09:51:46;11.23;;;1.95;;
72437;SDS011;60444;43.534;-5.674;2022-11-20T09:54:34;15.82;;;2.42;;
72437;SDS011;60444;43.534;-5.674;2022-11-20T09:57:04;16.48;;;2.92;;
72437;SDS011;60444;43.534;-5.674;2022-11-20T09:59:37;16.30;;;2.83;;
72437;SDS011;60444;43.534;-5.674;2022-11-20T10:02:55;17.23;;;3.15;;
72437;SDS011;60444;43.534;-5.674;2022-11-20T10:10:36;12.65;;;2.22;;
72437;SDS011;60444;43.534;-5.674;2022-11-20T10:13:17;15.97;;;2.80;;
72437;SDS011;60444;43.534;-5.674;2022-11-20T10:21:05;14.60;;;2.47;;
72437;SDS011;60444;43.534;-5.674;2022-11-20T10:28:48;16.48;;;2.10;;
72437;SDS011;60444;43.534;-5.674;2022-11-20T10:31:33;20.77;;;2.85;;
72437;SDS011;60444;43.534;-5.674;2022-11-20T10:34:06;20.10;;;2.95;;
72437;SDS011;60444;43.534;-5.674;2022-11-20T10:36:40;19.20;;;2.30;;
72437;SDS011;60444;43.534;-5.674;2022-11-20T10:39:16;20.57;;;3.10;;
72437;SDS011;60444;43.534;-5.674;2022-11-20T10:41:51;19.63;;;2.42;;
72437;SDS011;60444;43.534;-5.674;2022-11-20T10:44:22;18.95;;;2.95;;
72437;SDS011;60444;43.534;-5.674;2022-11-20T10:47:17;16.10;;;2.10;;
72437;SDS011;60444;43.534;-5.674;2022-11-20T10:49:44;11.32;;;2.00;;
72437;SDS011;60444;43.534;-5.674;2022-11-20T10:58:36;13.60;;;2.25;;
72437;SDS011;60444;43.534;-5.674;2022-11-20T11:01:15;15.48;;;2.08;;
72437;SDS011;60444;43.534;-5.674;2022-11-20T11:03:42;16.30;;;2.63;;
72437;SDS011;60444;43.534;-5.674;2022-11-20T11:08:45;10.40;;;1.70;;
72437;SDS011;60444;43.534;-5.674;2022-11-20T11:11:21;11.73;;;1.95;;
72437;SDS011;60444;43.534;-5.674;2022-11-20T11:13:49;15.98;;;2.42;;
72437;SDS011;60444;43.534;-5.674;2022-11-20T11:16:18;17.42;;;2.58;;
72437;SDS011;60444;43.534;-5.674;2022-11-20T11:18:49;11.70;;;1.80;;
72437;SDS011;60444;43.534;-5.674;2022-11-20T11:21:20;17.83;;;2.75;;
72437;SDS011;60444;43.534;-5.674;2022-11-20T11:23:48;14.33;;;2.20;;
72437;SDS011;60444;43.534;-5.674;2022-11-20T11:26:24;14.25;;;2.50;;
72437;SDS011;60444;43.534;-5.674;2022-11-20T11:29:00;14.60;;;2.35;;
72437;SDS011;60444;43.534;-5.674;2022-11-20T11:31:32;12.65;;;1.92;;
72437;SDS011;60444;43.534;-5.674;2022-11-20T11:34:11;17.10;;;2.20;;
72437;SDS011;60444;43.534;-5.674;2022-11-20T11:36:41;14.63;;;2.50;;
72437;SDS011;60444;43.534;-5.674;2022-11-20T11:39:11;12.00;;;1.85;;
72437;SDS011;60444;43.534;-5.674;2022-11-20T11:41:39;11.00;;;2.10;;
72437;SDS011;60444;43.534;-5.674;2022-11-20T11:47:04;9.93;;;2.05;;
72437;SDS011;60444;43.534;-5.674;2022-11-20T11:49:34;11.53;;;1.77;;
72437;SDS011;60444;43.534;-5.674;2022-11-20T11:52:13;11.15;;;1.65;;
72437;SDS011;60444;43.534;-5.674;2022-11-20T11:57:59;15.60;;;2.00;;
72437;SDS011;60444;43.534;-5.674;2022-11-20T12:00:09;12.02;;;1.50;;
72437;SDS011;60444;43.534;-5.674;2022-11-20T12:05:17;12.52;;;1.92;;
72437;SDS011;60444;43.534;-5.674;2022-11-20T12:13:01;10.52;;;1.27;;
72437;SDS011;60444;43.534;-5.674;2022-11-20T12:15:33;11.85;;;1.85;;
72437;SDS011;60444;43.534;-5.674;2022-11-20T12:17:59;11.50;;;1.63;;
72437;SDS011;60444;43.534;-5.674;2022-11-20T12:20:27;15.82;;;1.90;;
72437;SDS011;60444;43.534;-5.674;2022-11-20T12:23:04;9.60;;;1.50;;
72437;SDS011;60444;43.534;-5.674;2022-11-20T12:25:33;14.20;;;2.17;;
72437;SDS011;60444;43.534;-5.674;2022-11-20T12:28:23;12.30;;;1.50;;
72437;SDS011;60444;43.534;-5.674;2022-11-20T12:34:13;11.35;;;2.22;;
72437;SDS011;60444;43.534;-5.674;2022-11-20T12:39:41;12.13;;;2.22;;
72437;SDS011;60444;43.534;-5.674;2022-11-20T12:42:25;13.40;;;2.20;;
72437;SDS011;60444;43.534;-5.674;2022-11-20T13:04:08;8.93;;;1.57;;
72437;SDS011;60444;43.534;-5.674;2022-11-20T13:06:45;10.57;;;2.35;;
72437;SDS011;60444;43.534;-5.674;2022-11-20T13:09:13;12.73;;;1.95;;
72437;SDS011;60444;43.534;-5.674;2022-11-20T13:11:43;15.32;;;1.75;;
72437;SDS011;60444;43.534;-5.674;2022-11-20T13:19:31;11.77;;;1.67;;
72437;SDS011;60444;43.534;-5.674;2022-11-20T13:21:57;13.32;;;2.33;;
72437;SDS011;60444;43.534;-5.674;2022-11-20T13:24:24;12.67;;;1.80;;
72437;SDS011;60444;43.534;-5.674;2022-11-20T13:29:30;10.85;;;2.25;;
72437;SDS011;60444;43.534;-5.674;2022-11-20T13:34:54;16.88;;;2.53;;
72437;SDS011;60444;43.534;-5.674;2022-11-20T13:37:30;14.43;;;1.63;;
72437;SDS011;60444;43.534;-5.674;2022-11-20T13:42:38;12.88;;;2.35;;
72437;SDS011;60444;43.534;-5.674;2022-11-20T13:45:10;11.60;;;1.60;;
72437;SDS011;60444;43.534;-5.674;2022-11-20T13:47:50;12.88;;;1.70;;
72437;SDS011;60444;43.534;-5.674;2022-11-20T13:50:16;10.10;;;1.67;;
72437;SDS011;60444;43.534;-5.674;2022-11-20T13:58:15;16.77;;;1.83;;
72437;SDS011;60444;43.534;-5.674;2022-11-20T14:01:11;12.38;;;1.73;;
72437;SDS011;60444;43.534;-5.674;2022-11-20T14:03:42;17.37;;;2.20;;
72437;SDS011;60444;43.534;-5.674;2022-11-20T14:06:12;12.80;;;1.70;;
72437;SDS011;60444;43.534;-5.674;2022-11-20T14:08:59;10.73;;;2.00;;
72437;SDS011;60444;43.534;-5.674;2022-11-20T14:11:28;12.27;;;1.77;;
72437;SDS011;60444;43.534;-5.674;2022-11-20T14:13:56;12.88;;;1.63;;
72437;SDS011;60444;43.534;-5.674;2022-11-20T14:16:32;10.40;;;1.93;;
72437;SDS011;60444;43.534;-5.674;2022-11-20T14:21:51;10.90;;;2.15;;
72437;SDS011;60444;43.534;-5.674;2022-11-20T14:24:19;11.43;;;1.65;;
72437;SDS011;60444;43.534;-5.674;2022-11-20T14:26:49;10.18;;;1.77;;
72437;SDS011;60444;43.534;-5.674;2022-11-20T14:29:16;11.23;;;2.07;;
72437;SDS011;60444;43.534;-5.674;2022-11-20T14:31:44;10.00;;;1.58;;
72437;SDS011;60444;43.534;-5.674;2022-11-20T14:34:15;9.48;;;1.63;;
72437;SDS011;60444;43.534;-5.674;2022-11-20T14:36:46;10.95;;;1.70;;
72437;SDS011;60444;43.534;-5.674;2022-11-20T14:39:19;10.50;;;1.52;;
72437;SDS011;60444;43.534;-5.674;2022-11-20T14:41:53;7.47;;;1.80;;
72437;SDS011;60444;43.534;-5.674;2022-11-20T14:44:26;12.07;;;1.83;;
72437;SDS011;60444;43.534;-5.674;2022-11-20T14:46:54;10.35;;;1.73;;
72437;SDS011;60444;43.534;-5.674;2022-11-20T14:49:20;11.75;;;1.48;;
72437;SDS011;60444;43.534;-5.674;2022-11-20T14:51:46;12.73;;;1.67;;
72437;SDS011;60444;43.534;-5.674;2022-11-20T14:54:22;9.35;;;1.70;;
72437;SDS011;60444;43.534;-5.674;2022-11-20T14:59:25;8.23;;;1.10;;
72437;SDS011;60444;43.534;-5.674;2022-11-20T15:02:01;10.68;;;1.30;;
72437;SDS011;60444;43.534;-5.674;2022-11-20T15:04:30;8.85;;;1.83;;
72437;SDS011;60444;43.534;-5.674;2022-11-20T15:06:56;11.33;;;1.70;;
72437;SDS011;60444;43.534;-5.674;2022-11-20T15:09:22;11.13;;;1.65;;
72437;SDS011;60444;43.534;-5.674;2022-11-20T15:11:55;10.82;;;1.80;;
72437;SDS011;60444;43.534;-5.674;2022-11-20T15:14:24;9.30;;;1.40;;
72437;SDS011;60444;43.534;-5.674;2022-11-20T15:16:50;9.63;;;1.63;;
72437;SDS011;60444;43.534;-5.674;2022-11-20T15:19:18;13.75;;;2.17;;
72437;SDS011;60444;43.534;-5.674;2022-11-20T15:21:46;9.50;;;1.80;;
72437;SDS011;60444;43.534;-5.674;2022-11-20T15:24:11;10.02;;;1.70;;
72437;SDS011;60444;43.534;-5.674;2022-11-20T15:26:37;8.57;;;1.87;;
72437;SDS011;60444;43.534;-5.674;2022-11-20T15:29:09;12.82;;;1.98;;
72437;SDS011;60444;43.534;-5.674;2022-11-20T15:31:37;9.00;;;1.48;;
72437;SDS011;60444;43.534;-5.674;2022-11-20T15:34:10;11.30;;;1.30;;
72437;SDS011;60444;43.534;-5.674;2022-11-20T15:36:37;24.77;;;6.97;;
72437;SDS011;60444;43.534;-5.674;2022-11-20T15:39:04;18.13;;;3.33;;
72437;SDS011;60444;43.534;-5.674;2022-11-20T15:41:29;11.33;;;1.80;;
72437;SDS011;60444;43.534;-5.674;2022-11-20T15:43:54;8.80;;;1.25;;
72437;SDS011;60444;43.534;-5.674;2022-11-20T15:46:26;11.70;;;2.00;;
72437;SDS011;60444;43.534;-5.674;2022-11-20T15:48:54;11.40;;;1.88;;
72437;SDS011;60444;43.534;-5.674;2022-11-20T15:51:29;13.68;;;2.22;;
72437;SDS011;60444;43.534;-5.674;2022-11-20T15:53:54;9.17;;;1.60;;
72437;SDS011;60444;43.534;-5.674;2022-11-20T15:56:21;8.63;;;1.42;;
72437;SDS011;60444;43.534;-5.674;2022-11-20T15:58:46;8.38;;;1.88;;
72437;SDS011;60444;43.534;-5.674;2022-11-20T16:01:13;10.03;;;1.43;;
72437;SDS011;60444;43.534;-5.674;2022-11-20T16:03:43;12.07;;;1.60;;
72437;SDS011;60444;43.534;-5.674;2022-11-20T16:06:09;9.40;;;1.63;;
72437;SDS011;60444;43.534;-5.674;2022-11-20T16:08:34;13.97;;;2.00;;
72437;SDS011;60444;43.534;-5.674;2022-11-20T16:11:00;10.57;;;1.70;;
72437;SDS011;60444;43.534;-5.674;2022-11-20T16:13:30;9.93;;;1.35;;
72437;SDS011;60444;43.534;-5.674;2022-11-20T16:16:19;14.55;;;2.20;;
72437;SDS011;60444;43.534;-5.674;2022-11-20T16:18:47;10.48;;;2.20;;
72437;SDS011;60444;43.534;-5.674;2022-11-20T16:21:13;9.67;;;1.63;;
72437;SDS011;60444;43.534;-5.674;2022-11-20T16:23:38;8.27;;;1.50;;